Time;durP1;ratioP1;P1;durP2;ratioP2;P2;SDS_P1;SDS_P2;PMS_P1;PMS_P2;Temp;Humidity;BMP_temperature;BMP_pressure;BME280_temperature;BME280_humidity;BME280_pressure;Samples;Min_cycle;Max_cycle;Signal;HPM_P1;HPM_P2
2023/07/20 00:01:58;;;;;;;26.98;9.80;;;;;;;22.11;100.00;94047.63;6191292;23;19996;-93
2023/07/20 00:04:24;;;;;;;23.77;9.25;;;;;;;22.07;100.00;94052.09;6191530;23;19996;-94
2023/07/20 00:06:49;;;;;;;27.45;9.75;;;;;;;22.01;100.00;94037.47;6167085;23;20094;-92
2023/07/20 00:09:15;;;;;;;27.58;9.80;;;;;;;22.31;100.00;94031.63;6166615;23;20036;-94
2023/07/20 00:11:49;;;;;;;26.00;9.60;;;;;;;22.42;100.00;94029.16;6191345;23;20075;-93
2023/07/20 00:14:15;;;;;;;28.80;9.98;;;;;;;21.98;100.00;94019.50;6166679;23;20023;-92
2023/07/20 00:16:40;;;;;;;21.15;8.35;;;;;;;22.22;100.00;94028.38;6166812;23;20000;-94
2023/07/20 00:19:06;;;;;;;25.90;9.45;;;;;;;22.31;100.00;94026.28;6166641;23;20098;-93
2023/07/20 00:21:34;;;;;;;27.67;9.02;;;;;;;22.31;100.00;94023.63;6191319;23;20023;-91
2023/07/20 00:23:59;;;;;;;25.73;8.88;;;;;;;22.25;100.00;94023.13;6166252;23;20006;-92
2023/07/20 00:26:25;;;;;;;33.00;9.23;;;;;;;22.08;100.00;94018.94;6166758;23;20028;-92
2023/07/20 00:28:51;;;;;;;29.15;10.30;;;;;;;22.02;100.00;94015.81;6191432;23;20001;-93
2023/07/20 00:31:17;;;;;;;23.52;9.00;;;;;;;22.18;100.00;94018.41;6191275;23;19996;-93
2023/07/20 00:33:42;;;;;;;25.05;8.95;;;;;;;22.33;100.00;93999.25;6191581;23;20038;-92
2023/07/20 00:36:07;;;;;;;32.45;9.85;;;;;;;21.44;100.00;94006.50;6165864;23;20079;-92
2023/07/20 00:38:33;;;;;;;25.40;9.73;;;;;;;21.97;100.00;93996.63;6166405;23;20119;-93
2023/07/20 00:41:21;;;;;;;27.20;9.45;;;;;;;21.77;100.00;94001.91;6166869;23;20070;-93
2023/07/20 00:43:47;;;;;;;27.20;11.40;;;;;;;21.77;100.00;93995.81;6217018;23;20004;-92
2023/07/20 00:46:15;;;;;;;34.67;11.82;;;;;;;21.28;100.00;94003.84;6165771;23;20004;-92
2023/07/20 00:48:41;;;;;;;28.17;11.63;;;;;;;20.97;100.00;93999.28;6165338;23;20059;-90
2023/07/20 00:51:06;;;;;;;34.75;13.02;;;;;;;21.36;100.00;94001.34;6165443;23;20054;-89
2023/07/20 00:53:32;;;;;;;34.28;13.35;;;;;;;21.73;100.00;94004.53;6165610;23;20004;-91
2023/07/20 00:55:58;;;;;;;26.48;11.50;;;;;;;21.94;100.00;94002.66;6166140;23;20004;-93
2023/07/20 00:58:24;;;;;;;29.30;11.77;;;;;;;21.93;100.00;94006.44;6166432;23;20004;-93
2023/07/20 01:00:49;;;;;;;26.83;11.05;;;;;;;22.00;100.00;93999.34;6166201;23;20035;-93
2023/07/20 01:03:14;;;;;;;27.83;13.40;;;;;;;22.10;100.00;94008.72;6166449;23;20032;-91
2023/07/20 01:06:08;;;;;;;35.75;13.95;;;;;;;22.24;100.00;93996.81;6166258;23;20287;-92
2023/07/20 01:08:46;;;;;;;28.20;13.13;;;;;;;22.01;100.00;93992.91;6191316;23;20012;-92
2023/07/20 01:11:40;;;;;;;32.42;13.45;;;;;;;22.03;100.00;93995.22;6166548;23;20007;-93
2023/07/20 01:14:06;;;;;;;35.67;15.65;;;;;;;22.11;100.00;93994.25;6153238;23;20066;-92
2023/07/20 01:16:33;;;;;;;33.47;17.35;;;;;;;22.16;100.00;93991.31;6166679;23;20075;-92
2023/07/20 01:19:00;;;;;;;37.53;19.15;;;;;;;22.18;100.00;93988.31;6166635;23;20000;-90
2023/07/20 01:21:34;;;;;;;40.78;19.25;;;;;;;22.34;100.00;93995.47;6166899;23;20031;-91
2023/07/20 01:24:41;;;;;;;38.00;17.85;;;;;;;22.39;100.00;94001.28;6190764;23;20319;-90
2023/07/20 01:27:45;;;;;;;34.30;18.77;;;;;;;22.48;100.00;94005.66;6191469;23;19996;-93
2023/07/20 01:30:20;;;;;;;31.20;15.82;;;;;;;22.44;100.00;93998.34;6191469;23;20015;-93
2023/07/20 01:32:46;;;;;;;31.55;13.77;;;;;;;21.99;100.00;93997.81;6191264;23;20001;-91
2023/07/20 01:35:16;;;;;;;27.92;13.95;;;;;;;21.87;100.00;93998.72;6166230;23;20036;-92
2023/07/20 01:37:43;;;;;;;35.58;14.27;;;;;;;21.91;100.00;94006.00;6166773;23;20039;-91
2023/07/20 01:40:10;;;;;;;26.92;13.68;;;;;;;21.60;100.00;94003.81;6191450;23;20376;-93
2023/07/20 01:42:36;;;;;;;33.10;13.45;;;;;;;21.56;100.00;94000.31;6190791;23;20008;-92
2023/07/20 01:45:01;;;;;;;25.95;13.48;;;;;;;21.63;100.00;94010.34;6166409;23;20010;-92
2023/07/20 01:47:27;;;;;;;37.33;16.35;;;;;;;21.34;100.00;94009.69;6190887;23;20387;-92
2023/07/20 01:49:54;;;;;;;32.25;15.40;;;;;;;21.05;100.00;94027.66;6167896;23;20028;-92
2023/07/20 01:52:20;;;;;;;30.60;15.00;;;;;;;21.12;100.00;94033.13;6168934;23;20004;-91
2023/07/20 01:54:45;;;;;;;30.38;15.05;;;;;;;21.43;100.00;94023.59;6168027;23;20040;-92
2023/07/20 01:57:13;;;;;;;30.85;15.85;;;;;;;21.28;100.00;94021.72;6168896;23;20001;-92
2023/07/20 01:59:38;;;;;;;29.15;15.93;;;;;;;21.24;100.00;94021.66;6168882;23;20001;-92
2023/07/20 02:02:04;;;;;;;51.75;23.23;;;;;;;21.51;100.00;94027.19;6168623;23;20000;-93
2023/07/20 02:04:29;;;;;;;29.10;13.43;;;;;;;21.13;100.00;94025.94;6167542;23;20008;-93
2023/07/20 02:06:55;;;;;;;25.73;15.32;;;;;;;21.36;100.00;94025.31;6168739;23;20008;-92
2023/07/20 02:09:20;;;;;;;31.27;15.90;;;;;;;21.19;100.00;94020.00;6168555;23;19993;-92
2023/07/20 02:11:46;;;;;;;42.20;19.30;;;;;;;20.95;100.00;94036.91;6168741;23;20408;-91
2023/07/20 02:14:11;;;;;;;34.83;17.92;;;;;;;21.02;100.00;94042.41;6168153;23;20007;-92
2023/07/20 02:16:36;;;;;;;43.60;20.13;;;;;;;21.10;100.00;94030.03;6192728;23;20004;-91
2023/07/20 02:19:03;;;;;;;40.30;19.83;;;;;;;21.12;100.00;94037.72;6168469;23;19997;-91
2023/07/20 02:21:29;;;;;;;28.90;16.98;;;;;;;21.30;100.00;94030.13;6168852;23;20394;-92
2023/07/20 02:23:54;;;;;;;36.10;16.02;;;;;;;20.81;100.00;94044.53;6168173;23;20079;-91
2023/07/20 02:26:19;;;;;;;32.28;14.77;;;;;;;20.86;100.00;94045.03;6218892;23;20473;-92
2023/07/20 02:28:45;;;;;;;28.60;14.93;;;;;;;21.17;100.00;94042.78;6192966;23;19996;-92
2023/07/20 02:31:10;;;;;;;39.33;18.73;;;;;;;20.85;100.00;94051.47;6167644;23;20008;-91
2023/07/20 02:33:36;;;;;;;34.35;18.27;;;;;;;21.05;100.00;94055.03;6192590;23;20003;-91
2023/07/20 02:36:01;;;;;;;43.92;18.50;;;;;;;21.15;100.00;94061.00;6219079;23;20004;-92
2023/07/20 02:38:26;;;;;;;33.90;17.02;;;;;;;21.15;100.00;94063.66;6192936;23;19996;-92
2023/07/20 02:40:52;;;;;;;35.95;19.35;;;;;;;21.30;100.00;94044.25;6168481;23;20047;-93
2023/07/20 02:43:17;;;;;;;30.33;17.73;;;;;;;21.00;100.00;94052.63;6167614;23;20402;-90
2023/07/20 02:45:43;;;;;;;31.50;17.67;;;;;;;20.94;100.00;94035.34;6192293;23;20031;-90
2023/07/20 02:48:09;;;;;;;35.53;18.85;;;;;;;20.66;100.00;94041.47;6192662;23;20020;-90
2023/07/20 02:50:35;;;;;;;32.97;16.17;;;;;;;20.33;100.00;94047.78;6192303;23;20004;-90
2023/07/20 02:53:00;;;;;;;27.48;14.90;;;;;;;20.32;100.00;94055.00;6192192;23;20403;-92
2023/07/20 02:55:26;;;;;;;38.88;17.23;;;;;;;20.73;100.00;94060.28;6192891;23;20004;-92
2023/07/20 02:57:51;;;;;;;28.67;14.95;;;;;;;20.76;100.00;94056.94;6167787;23;20425;-91
2023/07/20 03:00:19;;;;;;;27.55;14.23;;;;;;;20.91;100.00;94062.66;6192096;23;20000;-90
2023/07/20 03:02:47;;;;;;;28.30;15.20;;;;;;;20.95;100.00;94065.41;6192515;23;20004;-92
2023/07/20 03:05:13;;;;;;;32.65;15.95;;;;;;;20.58;100.00;94059.09;6192689;23;20019;-92
2023/07/20 03:07:41;;;;;;;27.65;14.07;;;;;;;20.65;100.00;94063.84;6167739;23;20001;-92
2023/07/20 03:10:09;;;;;;;44.17;17.98;;;;;;;20.19;100.00;94053.47;6192707;23;20067;-90
2023/07/20 03:12:35;;;;;;;30.92;16.98;;;;;;;19.87;100.00;94059.34;6192580;23;20007;-92
2023/07/20 03:15:01;;;;;;;33.42;17.27;;;;;;;20.33;100.00;94055.75;6192590;23;20373;-91
2023/07/20 03:17:27;;;;;;;38.80;17.20;;;;;;;20.27;100.00;94049.88;6192441;23;20103;-92
2023/07/20 03:20:05;;;;;;;28.30;15.48;;;;;;;19.76;100.00;94047.63;6218585;23;20063;-90
2023/07/20 03:22:30;;;;;;;33.75;16.15;;;;;;;19.59;100.00;94060.03;6167427;23;20001;-91
2023/07/20 03:24:56;;;;;;;32.78;16.95;;;;;;;19.83;100.00;94061.13;6192385;23;20357;-92
2023/07/20 03:27:21;;;;;;;43.70;15.43;;;;;;;20.14;100.00;94057.13;6192138;23;20011;-93
2023/07/20 03:29:46;;;;;;;29.45;15.27;;;;;;;20.12;100.00;94056.69;6167307;23;20465;-91
2023/07/20 03:32:12;;;;;;;32.47;14.13;;;;;;;20.59;100.00;94058.00;6191960;23;20001;-91
2023/07/20 03:34:37;;;;;;;26.52;13.60;;;;;;;20.82;100.00;94065.47;6192572;23;19996;-91
2023/07/20 03:37:04;;;;;;;32.20;14.75;;;;;;;20.73;100.00;94057.63;6192190;23;20112;-92
2023/07/20 03:39:30;;;;;;;24.63;15.40;;;;;;;20.34;100.00;94049.31;6167522;23;20083;-91
2023/07/20 03:41:55;;;;;;;31.48;16.98;;;;;;;20.16;100.00;94043.50;6191910;23;20448;-92
2023/07/20 03:44:21;;;;;;;28.80;12.85;;;;;;;20.38;100.00;94054.75;6167950;23;19997;-91
2023/07/20 03:46:46;;;;;;;26.88;12.02;;;;;;;20.51;100.00;94055.47;6167927;23;20398;-91
2023/07/20 03:49:12;;;;;;;29.77;14.35;;;;;;;20.89;100.00;94055.03;6192202;23;19997;-92
2023/07/20 03:51:37;;;;;;;27.27;12.90;;;;;;;20.85;100.00;94046.16;6192153;23;20035;-92
2023/07/20 03:54:03;;;;;;;26.95;13.35;;;;;;;21.01;100.00;94048.84;6167426;23;20000;-92
2023/07/20 03:56:31;;;;;;;37.28;14.60;;;;;;;21.13;100.00;94065.88;6167548;23;20062;-92
2023/07/20 03:58:56;;;;;;;27.02;14.32;;;;;;;20.77;100.00;94060.38;6167823;23;20406;-92
2023/07/20 04:01:44;;;;;;;27.98;14.35;;;;;;;20.97;100.00;94058.66;6167681;23;20088;-91
2023/07/20 04:04:09;;;;;;;31.17;15.35;;;;;;;20.87;100.00;94056.47;6167828;23;20009;-92
2023/07/20 04:06:35;;;;;;;35.47;13.55;;;;;;;21.05;100.00;94055.03;6167156;23;19996;-92
2023/07/20 04:09:00;;;;;;;33.25;12.13;;;;;;;20.59;100.00;94059.88;6192316;23;19997;-91
2023/07/20 04:11:26;;;;;;;24.80;12.65;;;;;;;20.56;100.00;94058.66;6167498;23;20027;-92
2023/07/20 04:13:51;;;;;;;35.33;13.90;;;;;;;20.79;100.00;94049.38;6167193;23;20015;-93
2023/07/20 04:16:17;;;;;;;31.88;14.95;;;;;;;20.92;100.00;94056.22;6167222;23;20031;-92
2023/07/20 04:18:42;;;;;;;28.60;14.98;;;;;;;20.67;100.00;94056.31;6191760;23;20072;-91
2023/07/20 04:21:08;;;;;;;37.80;16.70;;;;;;;20.48;100.00;94057.69;6167311;23;19999;-90
2023/07/20 04:23:36;;;;;;;42.47;16.25;;;;;;;20.48;100.00;94055.03;6191386;23;20001;-92
2023/07/20 04:26:01;;;;;;;30.55;13.70;;;;;;;20.73;100.00;94065.59;6191978;23;20051;-91
2023/07/20 04:28:27;;;;;;;33.05;15.25;;;;;;;20.80;100.00;94062.34;6191888;23;20000;-91
2023/07/20 04:30:52;;;;;;;34.42;18.13;;;;;;;20.43;100.00;94060.59;6191528;23;20029;-91
2023/07/20 04:33:18;;;;;;;29.10;14.60;;;;;;;19.85;100.00;94061.56;6191584;23;20001;-91
2023/07/20 04:35:54;;;;;;;35.33;16.10;;;;;;;19.84;100.00;94053.91;6191647;23;19992;-92
2023/07/20 04:38:20;;;;;;;33.67;14.82;;;;;;;20.32;100.00;94057.66;6192356;23;20001;-91
2023/07/20 04:40:46;;;;;;;32.05;14.02;;;;;;;20.36;100.00;94052.41;6167072;23;19996;-91
2023/07/20 04:43:13;;;;;;;37.83;15.75;;;;;;;20.65;100.00;94060.41;6191528;23;20309;-91
2023/07/20 04:45:38;;;;;;;23.85;14.90;;;;;;;20.71;100.00;94051.84;6191859;23;20001;-92
2023/07/20 04:48:08;;;;;;;30.67;17.25;;;;;;;20.29;100.00;94041.59;6166664;23;20398;-91
2023/07/20 04:50:34;;;;;;;33.58;16.65;;;;;;;19.80;100.00;94040.53;6191524;23;20008;-90
2023/07/20 04:53:01;;;;;;;35.08;17.83;;;;;;;19.74;100.00;94042.66;6217621;23;20005;-90
2023/07/20 04:55:27;;;;;;;41.00;23.27;;;;;;;19.87;100.00;94040.75;6166944;23;19997;-92
2023/07/20 04:57:53;;;;;;;39.97;21.67;;;;;;;20.57;100.00;94046.91;6166929;23;20138;-92
2023/07/20 05:00:19;;;;;;;41.00;21.50;;;;;;;20.45;100.00;94036.34;6167013;23;20001;-92
2023/07/20 05:02:47;;;;;;;29.40;17.63;;;;;;;21.02;100.00;94045.06;6167275;23;20007;-92
2023/07/20 05:05:12;;;;;;;30.48;16.77;;;;;;;20.73;100.00;94032.88;6167433;23;20402;-90
2023/07/20 05:07:38;;;;;;;28.33;15.20;;;;;;;20.90;100.00;94037.94;6166769;23;20007;-92
2023/07/20 05:10:03;;;;;;;24.42;14.82;;;;;;;21.22;100.00;94039.84;6167483;23;20099;-92
2023/07/20 05:12:29;;;;;;;38.80;16.20;;;;;;;20.51;100.00;94037.63;6167251;23;20003;-92
2023/07/20 05:14:54;;;;;;;31.13;17.17;;;;;;;20.33;100.00;94037.13;6191853;23;20004;-92
2023/07/20 05:17:20;;;;;;;31.77;17.10;;;;;;;21.00;100.00;94023.34;6167346;23;19997;-92
2023/07/20 05:19:45;;;;;;;35.63;15.98;;;;;;;21.39;100.00;94024.66;6166791;23;20000;-91
2023/07/20 05:22:13;;;;;;;41.85;20.30;;;;;;;21.40;100.00;94026.97;6166872;23;20016;-91
2023/07/20 05:24:38;;;;;;;31.35;15.40;;;;;;;21.64;100.00;94032.44;6166246;23;20005;-91
2023/07/20 05:27:04;;;;;;;25.48;14.00;;;;;;;21.94;100.00;94031.97;6166745;23;20425;-93
2023/07/20 05:29:29;;;;;;;45.85;16.95;;;;;;;20.86;100.00;94041.63;6191141;23;19996;-93
2023/07/20 05:35:18;;;;;;;32.28;19.08;;;;;;;21.51;100.00;94037.09;6218569;23;20008;-90
2023/07/20 05:37:44;;;;;;;37.13;20.23;;;;;;;21.97;100.00;94041.97;6166967;23;20420;-91
2023/07/20 05:40:12;;;;;;;37.03;21.35;;;;;;;22.33;100.00;94044.63;6166534;23;19997;-90
2023/07/20 05:42:38;;;;;;;41.67;20.73;;;;;;;22.16;100.00;94041.22;6166038;23;20004;-90
2023/07/20 05:45:03;;;;;;;43.83;21.42;;;;;;;22.18;100.00;94042.41;6190992;23;19997;-90
2023/07/20 05:47:29;;;;;;;56.40;24.73;;;;;;;21.98;100.00;94043.53;6166227;23;20004;-89
2023/07/20 05:49:54;;;;;;;45.47;22.08;;;;;;;22.58;100.00;94050.47;6191075;23;20000;-91
2023/07/20 05:52:20;;;;;;;40.75;20.63;;;;;;;22.91;100.00;94049.19;6166190;23;19997;-92
2023/07/20 05:54:45;;;;;;;49.35;22.90;;;;;;;22.77;100.00;94054.25;6166485;23;20001;-90
2023/07/20 05:57:11;;;;;;;42.53;21.77;;;;;;;22.74;100.00;94059.19;6166135;23;19996;-88
2023/07/20 05:59:38;;;;;;;38.67;20.98;;;;;;;23.11;100.00;94057.94;6191124;23;20003;-90
2023/07/20 06:02:03;;;;;;;51.85;22.52;;;;;;;22.41;100.00;94057.75;6217001;23;19992;-89
2023/07/20 06:04:29;;;;;;;37.33;22.33;;;;;;;22.58;100.00;94058.50;6190643;23;20021;-89
2023/07/20 06:06:54;;;;;;;44.05;21.63;;;;;;;22.72;100.00;94064.09;6190825;23;20075;-90
2023/07/20 06:09:20;;;;;;;43.90;21.45;;;;;;;22.11;100.00;94054.84;6166084;23;20083;-90
2023/07/20 06:11:51;;;;;;;34.40;18.85;;;;;;;22.66;100.00;94060.16;6166312;23;20005;-91
2023/07/20 06:14:18;;;;;;;34.60;18.80;;;;;;;22.74;100.00;94064.53;6166660;23;20097;-90
2023/07/20 06:16:44;;;;;;;30.70;18.95;;;;;;;22.53;100.00;94061.44;6190993;23;20314;-90
2023/07/20 06:19:12;;;;;;;38.47;18.38;;;;;;;23.27;100.00;94062.44;6217107;23;20001;-90
2023/07/20 06:21:37;;;;;;;31.23;16.98;;;;;;;23.56;100.00;94071.69;6190730;23;20004;-90
2023/07/20 06:24:03;;;;;;;35.90;16.85;;;;;;;23.46;100.00;94072.28;6216991;23;20001;-90
2023/07/20 06:26:32;;;;;;;33.92;15.57;;;;;;;23.55;100.00;94074.72;6190723;23;20020;-90
2023/07/20 06:28:57;;;;;;;28.27;16.52;;;;;;;23.46;100.00;94077.63;6216841;23;20007;-91
2023/07/20 06:31:23;;;;;;;31.75;16.13;;;;;;;23.17;100.00;94074.44;6217147;23;19997;-91
2023/07/20 06:33:48;;;;;;;40.75;16.42;;;;;;;23.75;100.00;94077.34;6165940;23;20006;-90
2023/07/20 06:36:17;;;;;;;30.33;14.85;;;;;;;24.07;100.00;94069.78;6192247;23;20016;-90
2023/07/20 06:38:43;;;;;;;29.85;13.35;;;;;;;24.21;100.00;94077.25;6168156;23;20011;-92
2023/07/20 06:41:08;;;;;;;30.77;13.75;;;;;;;24.19;100.00;94081.41;6168200;23;19992;-92
2023/07/20 06:43:34;;;;;;;31.98;14.35;;;;;;;24.41;100.00;94077.91;6167608;23;20391;-92
2023/07/20 06:46:00;;;;;;;34.17;15.82;;;;;;;24.03;100.00;94081.56;6168248;23;20001;-89
2023/07/20 06:48:25;;;;;;;32.70;15.68;;;;;;;23.83;100.00;94087.78;6167952;23;20006;-93
2023/07/20 06:50:53;;;;;;;23.48;12.30;;;;;;;24.27;100.00;94086.50;6167876;23;20007;-94
2023/07/20 06:53:18;;;;;;;30.83;12.00;;;;;;;24.31;100.00;94085.78;6169496;23;20417;-94
2023/07/20 06:55:44;;;;;;;33.17;13.07;;;;;;;24.52;100.00;94080.72;6169095;23;19996;-95
2023/07/20 06:58:11;;;;;;;29.60;13.10;;;;;;;24.63;100.00;94080.84;6192612;23;20314;-91
2023/07/20 07:00:39;;;;;;;27.40;13.27;;;;;;;24.45;100.00;94087.88;6167742;23;19997;-92
2023/07/20 07:03:04;;;;;;;37.40;14.43;;;;;;;24.51;100.00;94092.56;6168697;23;20000;-91
2023/07/20 07:05:29;;;;;;;28.70;13.65;;;;;;;24.95;100.00;94096.53;6168224;23;20004;-93
2023/07/20 07:07:55;;;;;;;28.90;11.05;;;;;;;25.02;100.00;94100.44;6167904;23;20058;-94
2023/07/20 07:10:30;;;;;;;24.45;11.07;;;;;;;25.24;100.00;94102.19;6168912;23;20004;-95
2023/07/20 07:12:56;;;;;;;26.00;10.35;;;;;;;25.11;100.00;94107.03;6169381;23;20066;-91
2023/07/20 07:15:21;;;;;;;26.98;10.13;;;;;;;25.44;100.00;94101.22;6219466;23;20398;-93
2023/07/20 07:17:54;;;;;;;25.30;11.50;;;;;;;25.22;100.00;94106.38;6218918;23;20063;-92
2023/07/20 07:20:19;;;;;;;30.88;10.45;;;;;;;25.16;100.00;94108.63;6169137;23;19993;-92
2023/07/20 07:22:45;;;;;;;21.05;10.10;;;;;;;25.91;100.00;94113.16;6218779;23;20406;-91
2023/07/20 07:25:11;;;;;;;29.30;12.88;;;;;;;25.17;100.00;94109.38;6192030;23;20002;-92
2023/07/20 07:27:36;;;;;;;18.92;10.15;;;;;;;26.25;100.00;94114.91;6192202;23;20001;-92
2023/07/20 07:30:03;;;;;;;31.77;10.45;;;;;;;26.70;100.00;94122.09;6191842;23;20007;-89
2023/07/20 07:32:28;;;;;;;29.40;11.43;;;;;;;27.25;100.00;94115.75;6167356;23;20398;-92
2023/07/20 07:34:54;;;;;;;33.67;10.85;;;;;;;27.05;100.00;94126.06;6218305;23;19997;-94
2023/07/20 07:37:25;;;;;;;23.90;9.85;;;;;;;27.17;100.00;94122.25;6191961;23;20000;-93
2023/07/20 07:39:50;;;;;;;21.58;9.27;;;;;;;27.06;100.00;94127.63;6218528;23;19996;-92
2023/07/20 07:42:15;;;;;;;24.48;10.77;;;;;;;26.61;100.00;94125.88;6167493;23;20051;-90
2023/07/20 07:44:41;;;;;;;28.33;11.57;;;;;;;26.82;100.00;94132.47;6191635;23;20008;-90
2023/07/20 07:47:07;;;;;;;24.13;10.68;;;;;;;26.11;100.00;94134.38;6167431;23;20054;-91
2023/07/20 07:49:32;;;;;;;26.05;10.05;;;;;;;26.14;100.00;94135.56;6191816;23;20318;-90
2023/07/20 07:52:06;;;;;;;42.80;14.18;;;;;;;26.54;100.00;94139.28;6217827;23;20005;-91
2023/07/20 07:54:31;;;;;;;34.50;12.82;;;;;;;26.18;100.00;94139.84;6191846;23;20314;-88
2023/07/20 07:56:59;;;;;;;34.42;13.07;;;;;;;27.00;100.00;94131.81;6192217;23;20011;-89
2023/07/20 07:59:24;;;;;;;25.50;14.45;;;;;;;27.65;100.00;94137.38;6167457;23;19997;-90
2023/07/20 08:01:56;;;;;;;24.55;13.23;;;;;;;27.74;100.00;94145.06;6191607;23;20003;-91
2023/07/20 08:04:21;;;;;;;36.63;14.65;;;;;;;27.39;100.00;94136.53;6166873;23;19996;-89
2023/07/20 08:06:47;;;;;;;36.45;14.63;;;;;;;27.33;100.00;94128.09;6191813;23;20059;-92
2023/07/20 08:09:13;;;;;;;22.77;13.13;;;;;;;26.90;100.00;94131.41;6217981;23;20023;-89
2023/07/20 08:11:39;;;;;;;27.15;13.82;;;;;;;26.47;100.00;94125.81;6192250;23;20058;-93
2023/07/20 08:14:05;;;;;;;35.53;15.70;;;;;;;26.14;100.00;94130.94;6167091;23;20004;-91
2023/07/20 08:16:30;;;;;;;36.35;16.30;;;;;;;25.88;100.00;94132.66;6191748;23;19996;-90
2023/07/20 08:18:55;;;;;;;35.58;16.50;;;;;;;25.91;100.00;94123.88;6166903;23;19996;-89
2023/07/20 08:21:21;;;;;;;45.15;15.88;;;;;;;26.37;100.00;94136.09;6191957;23;20071;-91
2023/07/20 08:23:47;;;;;;;25.90;14.27;;;;;;;26.51;100.00;94122.00;6167153;23;20099;-91
2023/07/20 08:26:12;;;;;;;35.72;16.52;;;;;;;26.17;100.00;94122.13;6166921;23;20007;-93
2023/07/20 08:28:38;;;;;;;26.00;14.65;;;;;;;26.70;100.00;94112.09;6166810;23;19997;-92
2023/07/20 08:31:13;;;;;;;26.00;13.93;;;;;;;26.53;100.00;94118.91;6191830;23;20005;-93
2023/07/20 08:33:41;;;;;;;29.35;13.15;;;;;;;26.63;100.00;94118.19;6192955;23;20011;-91
2023/07/20 08:36:16;;;;;;;;;;;;;;;;;;;;;
2023/07/20 08:38:52;;;;;;;;;;;;;;;;;;;;;
2023/07/20 08:41:30;;;;;;;;;;;;;;;;;;;;;
2023/07/20 08:44:01;;;;;;;24.92;13.18;;;;;;;27.39;100.00;94115.00;6194001;23;20028;-93
2023/07/20 08:46:30;;;;;;;25.45;12.70;;;;;;;28.05;100.00;94126.63;6167851;23;20001;-93
2023/07/20 08:49:06;;;;;;;;;;;;;;;;;;;;;
2023/07/20 08:51:40;;;;;;;25.52;13.20;;;;;;;29.31;100.00;94122.78;6193523;23;20395;-93
2023/07/20 08:54:16;;;;;;;;;;;;;;;;;;;;;
2023/07/20 08:56:55;;;;;;;;;;;;;;;;;;;;;
2023/07/20 08:59:34;;;;;;;22.52;12.10;;;;;;;29.13;100.00;94125.59;6217786;23;20028;-90
2023/07/20 09:02:19;;;;;;;28.55;11.90;;;;;;;29.16;100.00;94124.81;6169078;23;19992;-91
2023/07/20 09:04:45;;;;;;;28.90;13.38;;;;;;;29.33;100.00;94131.25;6192003;23;20004;-92
2023/07/20 09:07:26;;;;;;;;;;;;;;;;;;;;;
2023/07/20 09:10:07;;;;;;;;;;;;;;;;;;;;;
2023/07/20 09:12:42;;;;;;;26.35;14.63;;;;;;;28.87;100.00;94124.16;6193672;23;20039;-93
2023/07/20 09:15:21;;;;;;;;;;;;;;;;;;;;;
2023/07/20 09:17:58;;;;;;;;;;;;;;;;;;;;;
2023/07/20 09:20:36;;;;;;;;;;;;;;;;;;;;;
2023/07/20 09:23:13;;;;;;;35.97;16.05;;;;;;;29.18;100.00;94130.56;6194420;23;20386;-94
2023/07/20 09:25:50;;;;;;;26.45;13.55;;;;;;;29.80;100.00;94124.81;6168918;23;20005;-94
2023/07/20 09:28:29;;;;;;;;;;;;;;;;;;;;;
2023/07/20 09:31:07;;;;;;;;;;;;;;;;;;;;;
2023/07/20 09:33:35;;;;;;;30.77;14.32;;;;;;;28.49;100.00;94144.28;6192935;23;20457;-92
2023/07/20 09:36:21;;;;;;;33.72;16.38;;;;;;;28.25;100.00;94128.94;6167089;23;20004;-96
2023/07/20 09:38:54;;;;;;;41.90;16.02;;;;;;;28.31;100.00;94132.75;6218139;23;20057;-94
2023/07/20 09:41:26;;;;;;;25.88;14.32;;;;;;;28.90;100.00;94139.53;6191621;23;20090;-93
2023/07/20 09:47:04;;;;;;;;;;;;;;;;;;;;;
2023/07/20 09:50:00;;;;;;;30.85;14.65;;;;;;;29.21;100.00;94129.78;6194495;23;20090;-94
2023/07/20 09:52:39;;;;;;;;;;;;;;;;;;;;;
2023/07/20 09:55:19;;;;;;;;;;;;;;;;;;;;;
2023/07/20 09:57:57;;;;;;;;;;;;;;;;;;;;;
2023/07/20 10:00:46;;;;;;;25.20;13.13;;;;;;;29.38;100.00;94137.41;6193647;23;20030;-92
2023/07/20 10:03:37;;;;;;;;;;;;;;;;;;;;;
2023/07/20 10:06:07;;;;;;;26.65;13.18;;;;;;;29.20;100.00;94130.94;6186418;23;20067;-90
2023/07/20 10:08:45;;;;;;;30.75;12.88;;;;;;;29.26;100.00;94130.53;6166596;23;20011;-94
2023/07/20 10:11:22;;;;;;;;;;;;;;;;;;;;;
2023/07/20 10:13:53;;;;;;;35.85;13.90;;;;;;;28.50;100.00;94134.25;6195375;23;20024;-92
2023/07/20 10:16:31;;;;;;;24.55;13.68;;;;;;;27.87;100.00;94130.06;6193377;23;19996;-89
2023/07/20 10:19:07;;;;;;;38.63;13.80;;;;;;;28.18;100.00;94127.00;6168988;23;20099;-94
2023/07/20 10:21:36;;;;;;;27.33;15.00;;;;;;;27.11;100.00;94124.53;6193006;23;20000;-91
2023/07/20 10:24:13;;;;;;;;;;;;;;;;;;;;;
2023/07/20 10:26:51;;;;;;;33.50;15.52;;;;;;;26.84;100.00;94130.22;6195487;23;20450;-93
2023/07/20 10:29:19;;;;;;;34.42;14.82;;;;;;;27.93;100.00;94131.25;6193192;23;20016;-92
2023/07/20 10:31:45;;;;;;;34.55;13.63;;;;;;;28.42;100.00;94138.13;6192704;23;20032;-94
2023/07/20 10:34:20;;;;;;;;;;;;;;;;;;;;;
2023/07/20 10:36:54;;;;;;;23.05;12.23;;;;;;;30.07;100.00;94132.34;6195310;23;20378;-94
2023/07/20 10:39:30;;;;;;;;;;;;;;;29.61;100.00;94132.25;6195531;23;19996;-92
2023/07/20 10:42:09;;;;;;;29.55;11.55;;;;;;;29.98;100.00;94130.06;6193609;23;19904;-90
2023/07/20 10:44:38;;;;;;;27.52;11.43;;;;;;;30.30;100.00;94130.97;6192828;23;20080;-92
2023/07/20 10:47:09;;;;;;;25.90;11.38;;;;;;;30.11;100.00;94122.28;6192694;23;20001;-93
2023/07/20 10:49:35;;;;;;;21.77;12.40;;;;;;;29.11;100.00;94127.16;6167830;23;20050;-94
2023/07/20 10:52:05;;;;;;;30.15;12.60;;;;;;;28.39;100.00;94122.72;6167696;23;20714;-90
2023/07/20 10:54:30;;;;;;;25.23;12.00;;;;;;;28.71;100.00;94124.59;6192706;23;20000;-93
2023/07/20 10:56:58;;;;;;;29.65;11.50;;;;;;;29.51;100.00;94108.06;6193250;23;20000;-94
2023/07/20 10:59:23;;;;;;;27.58;10.73;;;;;;;29.70;100.00;94112.16;6193114;23;20058;-94
2023/07/20 11:05:44;;;;;;;22.65;10.32;;;;;;;29.35;100.00;94107.38;6219412;23;20044;-91
2023/07/20 11:08:11;;;;;;;32.40;10.45;;;;;;;29.66;100.00;94104.09;6167995;23;20028;-94
2023/07/20 11:10:36;;;;;;;28.48;10.00;;;;;;;29.93;100.00;94098.09;6192906;23;20027;-94
2023/07/20 11:14:26;;;;;;;17.95;9.70;;;;;;;30.67;100.00;94093.53;6169059;23;20004;-95
2023/07/20 11:16:45;;;;;;;21.45;9.05;;;;;;;30.22;100.00;94094.41;6209363;23;20005;-95
2023/07/20 11:19:35;;;;;;;;;;;;;;;;;;;;;
2023/07/20 11:22:09;;;;;;;21.60;10.35;;;;;;;29.63;100.00;94094.88;6193918;23;20031;-86
2023/07/20 11:24:42;;;;;;;25.45;10.88;;;;;;;28.97;100.00;94098.31;6191869;23;19996;-87
2023/07/20 11:27:14;;;;;;;23.48;9.75;;;;;;;28.86;100.00;94087.56;6193625;23;20004;-88
2023/07/20 11:29:40;;;;;;;34.75;10.90;;;;;;;29.17;100.00;94085.88;6193569;23;20000;-88
2023/07/20 11:32:06;;;;;;;31.08;10.25;;;;;;;29.77;100.00;94088.56;6166923;23;20052;-87
2023/07/20 11:34:33;;;;;;;21.70;9.35;;;;;;;30.15;100.00;94087.13;6218609;23;20416;-85
2023/07/20 11:36:59;;;;;;;17.30;8.65;;;;;;;30.45;100.00;94088.38;6191790;23;20361;-88
2023/07/20 11:39:25;;;;;;;21.30;9.55;;;;;;;29.81;100.00;94090.47;6167055;23;20028;-86
2023/07/20 11:42:09;;;;;;;25.58;9.82;;;;;;;30.48;100.00;94090.25;6167009;23;20004;-88
2023/07/20 11:44:34;;;;;;;26.05;9.15;;;;;;;30.68;100.00;94084.25;6192415;23;20000;-87
2023/07/20 11:47:04;;;;;;;25.95;9.45;;;;;;;30.08;100.00;94087.97;6167210;23;20001;-86
2023/07/20 11:49:30;;;;;;;23.92;9.77;;;;;;;29.52;100.00;94074.50;6166865;23;20287;-86
2023/07/20 11:51:57;;;;;;;25.02;10.65;;;;;;;30.54;100.00;94079.78;6217922;23;20004;-89
2023/07/20 11:54:23;;;;;;;27.83;10.07;;;;;;;30.80;100.00;94080.28;6166849;23;20028;-92
2023/07/20 11:56:48;;;;;;;21.30;8.95;;;;;;;32.32;96.66;94077.25;6192061;23;20067;-93
2023/07/20 11:59:14;;;;;;;20.13;9.25;;;;;;;32.80;95.97;94077.91;6192303;23;20047;-94